Time;durP1;ratioP1;P1;durP2;ratioP2;P2;SDS_P1;SDS_P2;PMS_P1;PMS_P2;Temp;Humidity;BMP_temperature;BMP_pressure;BME280_temperature;BME280_humidity;BME280_pressure;Samples;Min_cycle;Max_cycle;Signal;HPM_P1;HPM_P2
2022/07/28 00:01:09;;;;;;;4.32;1.17;;;18.00;93.20;;;;;;5084281;28;20228;-79
2022/07/28 00:03:36;;;;;;;2.55;0.85;;;17.80;93.80;;;;;;5087348;28;20200;-78
2022/07/28 00:06:04;;;;;;;1.63;1.00;;;17.60;94.50;;;;;;5085700;28;20212;-79
2022/07/28 00:08:31;;;;;;;2.20;1.08;;;17.50;95.20;;;;;;5086771;28;20201;-78
2022/07/28 00:10:58;;;;;;;1.95;1.20;;;17.50;95.10;;;;;;5084003;28;20220;-79
2022/07/28 00:13:26;;;;;;;1.70;1.00;;;17.30;96.10;;;;;;5088054;28;20208;-78
2022/07/28 00:15:53;;;;;;;2.55;1.00;;;17.40;96.20;;;;;;5083249;28;20236;-78
2022/07/28 00:18:22;;;;;;;2.58;0.95;;;17.70;95.50;;;;;;5084484;28;20208;-78
2022/07/28 00:20:50;;;;;;;1.80;1.00;;;17.40;96.00;;;;;;5086213;28;20569;-78
2022/07/28 00:23:17;;;;;;;1.58;1.25;;;17.40;96.10;;;;;;5083934;28;20201;-78
2022/07/28 00:25:46;;;;;;;1.70;0.90;;;17.80;95.60;;;;;;5081068;28;20193;-78
2022/07/28 00:28:14;;;;;;;1.77;0.95;;;18.10;95.40;;;;;;5086762;28;20193;-78
2022/07/28 00:30:41;;;;;;;1.95;0.90;;;17.80;95.00;;;;;;5088013;28;20212;-78
2022/07/28 00:33:09;;;;;;;1.92;0.90;;;17.90;95.20;;;;;;5080467;28;20203;-79
2022/07/28 00:35:38;;;;;;;1.67;0.93;;;17.80;95.90;;;;;;5083657;28;20213;-79
2022/07/28 00:38:06;;;;;;;2.78;1.00;;;17.80;95.40;;;;;;5101010;28;20204;-79
2022/07/28 00:43:18;;;;;;;2.35;0.88;;;17.90;94.80;;;;;;5078514;28;20202;-78
2022/07/28 00:45:53;;;;;;;2.47;0.85;;;17.80;94.90;;;;;;5091630;28;20190;-79
2022/07/28 00:48:20;;;;;;;3.05;0.93;;;17.40;96.20;;;;;;5081260;28;20212;-78
2022/07/28 00:50:49;;;;;;;2.22;1.30;;;18.00;95.20;;;;;;5083494;28;20225;-79
2022/07/28 00:53:17;;;;;;;1.33;0.73;;;17.80;94.90;;;;;;5103754;28;20697;-78
2022/07/28 00:55:45;;;;;;;2.22;1.10;;;17.40;96.40;;;;;;5078390;28;20209;-78
2022/07/28 00:58:12;;;;;;;2.15;0.90;;;17.30;96.30;;;;;;5083093;28;20197;-78
2022/07/28 01:00:40;;;;;;;3.53;1.23;;;16.90;97.70;;;;;;5086570;28;20216;-79
2022/07/28 01:03:07;;;;;;;2.30;1.00;;;17.00;97.80;;;;;;5085485;28;20208;-78
2022/07/28 01:05:48;;;;;;;1.65;1.00;;;17.00;97.80;;;;;;5086159;28;20204;-79
2022/07/28 01:08:23;;;;;;;1.30;0.90;;;16.70;99.00;;;;;;5089468;28;20199;-78
2022/07/28 01:11:01;;;;;;;2.80;0.98;;;16.90;98.40;;;;;;5086508;28;20220;-78
2022/07/28 01:13:38;;;;;;;2.90;1.30;;;17.00;98.40;;;;;;5090418;28;20201;-78
2022/07/28 01:16:07;;;;;;;3.45;1.20;;;17.00;98.10;;;;;;5088212;28;20209;-79
2022/07/28 01:18:42;;;;;;;1.98;1.20;;;16.70;99.00;;;;;;5076112;28;20574;-78
2022/07/28 01:21:13;;;;;;;2.22;1.00;;;16.70;99.30;;;;;;5079210;28;20796;-78
2022/07/28 01:24:04;;;;;;;3.13;1.10;;;16.90;98.70;;;;;;5080082;28;20193;-78
2022/07/28 01:26:47;;;;;;;2.38;1.10;;;16.50;99.90;;;;;;5086550;28;20212;-79
2022/07/28 01:29:33;;;;;;;2.13;0.82;;;16.70;99.90;;;;;;5089557;28;20205;-78
2022/07/28 01:32:06;;;;;;;3.70;1.30;;;16.50;99.90;;;;;;5082537;28;20196;-79
2022/07/28 01:34:38;;;;;;;2.97;1.08;;;16.90;99.30;;;;;;5087042;28;20231;-78
2022/07/28 01:37:11;;;;;;;1.90;1.10;;;16.80;99.50;;;;;;5087800;28;20523;-78
2022/07/28 01:39:43;;;;;;;2.10;1.30;;;17.20;98.60;;;;;;5087212;28;20239;-78
2022/07/28 01:42:20;;;;;;;1.40;0.93;;;17.00;99.40;;;;;;5089311;28;20189;-78
2022/07/28 01:44:50;;;;;;;2.35;1.00;;;16.90;99.00;;;;;;5077664;28;20193;-78
2022/07/28 01:47:21;;;;;;;1.73;0.93;;;16.50;99.50;;;;;;5083640;28;20205;-78
2022/07/28 01:49:51;;;;;;;2.22;1.08;;;16.30;99.90;;;;;;5087140;28;20678;-78
2022/07/28 01:52:19;;;;;;;1.70;1.00;;;16.40;99.90;;;;;;5106221;28;20194;-78
2022/07/28 01:54:50;;;;;;;1.10;1.00;;;16.80;99.90;;;;;;5084147;28;20225;-78
2022/07/28 01:57:19;;;;;;;4.40;1.10;;;16.90;99.10;;;;;;5088236;28;20192;-78
2022/07/28 01:59:49;;;;;;;2.25;0.98;;;16.70;99.50;;;;;;5082492;28;20678;-79
2022/07/28 02:02:21;;;;;;;2.05;1.17;;;17.00;99.30;;;;;;5089334;28;20200;-78
2022/07/28 02:04:51;;;;;;;2.33;1.08;;;16.60;99.80;;;;;;5082077;28;20205;-78
2022/07/28 02:07:20;;;;;;;1.33;1.10;;;16.30;99.90;;;;;;5087898;28;20670;-79
2022/07/28 02:09:48;;;;;;;2.13;1.40;;;16.70;99.90;;;;;;5086631;28;20208;-78
2022/07/28 02:12:18;;;;;;;4.97;1.30;;;16.80;99.90;;;;;;5088640;28;20201;-78
2022/07/28 02:14:48;;;;;;;2.72;1.60;;;16.80;99.80;;;;;;5086102;28;20540;-79
2022/07/28 02:17:20;;;;;;;2.85;1.50;;;16.80;99.50;;;;;;5088660;28;20263;-79
2022/07/28 02:19:50;;;;;;;1.02;1.00;;;16.50;99.90;;;;;;5088717;28;20223;-79
2022/07/28 02:22:18;;;;;;;3.45;1.55;;;16.90;99.90;;;;;;5084014;28;20200;-79
2022/07/28 02:24:46;;;;;;;4.45;1.85;;;16.70;99.90;;;;;;5084455;28;20190;-78
2022/07/28 02:27:21;;;;;;;3.00;1.67;;;17.20;98.90;;;;;;5091507;28;20201;-78
2022/07/28 02:29:50;;;;;;;3.00;1.80;;;16.80;99.00;;;;;;5088160;28;20216;-78
2022/07/28 02:32:23;;;;;;;1.70;1.50;;;16.80;99.90;;;;;;5087285;28;20248;-78
2022/07/28 02:34:53;;;;;;;4.05;1.70;;;16.80;99.80;;;;;;5083626;28;20208;-78
2022/07/28 02:37:21;;;;;;;1.92;1.50;;;16.90;99.60;;;;;;5088612;28;20197;-78
2022/07/28 02:39:53;;;;;;;2.38;1.98;;;16.80;99.80;;;;;;5090159;28;20216;-78
2022/07/28 02:42:28;;;;;;;1.77;1.60;;;16.80;99.50;;;;;;5087749;28;20197;-79
2022/07/28 02:44:58;;;;;;;2.08;1.40;;;16.80;99.80;;;;;;5083293;28;20212;-79
2022/07/28 02:47:31;;;;;;;4.18;1.67;;;17.10;99.50;;;;;;5105431;28;20201;-79
2022/07/28 02:50:02;;;;;;;2.78;1.60;;;17.00;99.80;;;;;;5087123;28;20223;-79
2022/07/28 02:52:32;;;;;;;2.08;1.55;;;17.20;98.70;;;;;;5086899;28;20192;-78
2022/07/28 02:55:02;;;;;;;3.25;1.30;;;16.90;99.40;;;;;;5085298;28;20197;-78
2022/07/28 02:57:31;;;;;;;5.22;2.47;;;16.90;99.90;;;;;;5087722;28;20193;-78
2022/07/28 02:59:59;;;;;;;1.30;1.20;;;17.20;99.30;;;;;;5085750;28;20213;-79
2022/07/28 03:02:29;;;;;;;7.28;1.80;;;17.10;99.60;;;;;;5087013;28;20197;-78
2022/07/28 03:05:00;;;;;;;4.00;2.00;;;16.80;99.70;;;;;;5085436;28;20194;-78
2022/07/28 03:07:31;;;;;;;2.85;1.75;;;16.40;99.90;;;;;;5084578;28;20205;-78
2022/07/28 03:09:59;;;;;;;2.88;1.38;;;16.80;99.90;;;;;;5085062;28;20216;-78
2022/07/28 03:12:27;;;;;;;3.60;1.83;;;16.90;99.90;;;;;;5083004;28;20201;-78
2022/07/28 03:14:54;;;;;;;3.03;2.05;;;16.90;99.90;;;;;;5087950;28;20208;-78
2022/07/28 03:17:22;;;;;;;5.35;2.20;;;16.50;99.90;;;;;;5084177;28;20581;-79
2022/07/28 03:19:49;;;;;;;3.90;2.00;;;16.50;99.90;;;;;;5078855;28;20221;-78
2022/07/28 03:22:17;;;;;;;2.58;1.70;;;16.90;99.90;;;;;;5086635;28;20208;-78
2022/07/28 03:24:49;;;;;;;1.98;1.45;;;17.10;99.90;;;;;;5090499;28;20196;-78
2022/07/28 03:27:22;;;;;;;2.83;1.40;;;17.30;99.50;;;;;;5087225;28;21376;-78
2022/07/28 03:29:53;;;;;;;3.65;2.00;;;17.50;98.60;;;;;;5087860;28;20225;-78
2022/07/28 03:32:22;;;;;;;2.63;1.90;;;16.80;99.90;;;;;;5087341;28;20681;-78
2022/07/28 03:34:51;;;;;;;2.78;1.65;;;16.20;99.90;;;;;;5084001;28;20720;-78
2022/07/28 03:37:25;;;;;;;2.45;1.85;;;16.80;99.90;;;;;;5087961;28;20726;-78
2022/07/28 03:39:57;;;;;;;2.33;1.38;;;16.80;99.90;;;;;;5085047;28;20682;-78
2022/07/28 03:42:27;;;;;;;2.17;1.33;;;17.40;99.40;;;;;;5086921;28;20215;-78
2022/07/28 03:44:55;;;;;;;2.72;1.60;;;17.70;98.70;;;;;;5086843;28;20662;-77
2022/07/28 03:47:23;;;;;;;2.42;1.73;;;17.50;98.60;;;;;;5086470;28;20189;-76
2022/07/28 03:49:51;;;;;;;3.53;1.65;;;17.80;97.80;;;;;;5088276;28;20224;-77
2022/07/28 03:52:19;;;;;;;2.97;1.80;;;17.80;97.60;;;;;;5085072;28;20209;-76
2022/07/28 03:54:46;;;;;;;2.95;1.80;;;17.80;97.60;;;;;;5087920;28;20216;-76
2022/07/28 03:57:15;;;;;;;3.72;1.80;;;17.50;97.90;;;;;;5084559;28;20228;-77
2022/07/28 03:59:43;;;;;;;3.35;1.60;;;17.80;97.80;;;;;;5079703;28;20753;-76
2022/07/28 04:02:10;;;;;;;2.15;1.75;;;17.60;98.20;;;;;;5085630;28;20200;-77
2022/07/28 04:04:38;;;;;;;3.28;2.15;;;17.70;97.70;;;;;;5083279;28;20557;-77
2022/07/28 04:07:05;;;;;;;3.47;2.38;;;17.50;97.80;;;;;;5082895;28;20185;-77
2022/07/28 04:09:32;;;;;;;4.25;1.80;;;17.40;98.30;;;;;;5087682;28;20570;-76
2022/07/28 04:12:00;;;;;;;2.45;1.83;;;17.50;98.30;;;;;;5083879;28;20204;-77
2022/07/28 04:14:29;;;;;;;4.75;2.17;;;17.40;98.70;;;;;;5081557;28;20193;-77
2022/07/28 04:16:56;;;;;;;4.32;2.08;;;17.40;99.00;;;;;;5089938;28;20217;-76
2022/07/28 04:19:24;;;;;;;3.50;1.80;;;17.50;98.70;;;;;;5088477;28;20212;-76
2022/07/28 04:21:51;;;;;;;2.45;2.17;;;17.50;98.20;;;;;;5088244;28;20554;-76
2022/07/28 04:24:19;;;;;;;2.67;1.50;;;17.50;98.40;;;;;;5084382;28;20206;-77
2022/07/28 04:26:46;;;;;;;2.60;1.48;;;17.60;98.50;;;;;;5084530;28;20196;-76
2022/07/28 04:29:14;;;;;;;3.15;1.92;;;17.70;98.20;;;;;;5085797;28;20204;-77
2022/07/28 04:31:43;;;;;;;5.05;2.30;;;17.60;98.40;;;;;;5085319;28;20193;-76
2022/07/28 04:34:10;;;;;;;2.78;2.00;;;17.20;98.40;;;;;;5080071;28;20201;-76
2022/07/28 04:36:42;;;;;;;3.97;2.00;;;17.40;98.40;;;;;;5084408;28;20228;-77
2022/07/28 04:39:10;;;;;;;4.05;1.58;;;17.50;98.60;;;;;;5086297;28;20211;-76
2022/07/28 04:41:38;;;;;;;2.72;1.90;;;17.60;98.70;;;;;;5089657;28;20219;-77
2022/07/28 04:44:05;;;;;;;2.83;1.65;;;17.60;98.50;;;;;;5083233;28;20682;-77
2022/07/28 04:46:34;;;;;;;2.60;1.77;;;17.80;98.20;;;;;;5085780;28;20197;-76
2022/07/28 04:49:04;;;;;;;3.08;1.73;;;17.80;97.80;;;;;;5083248;28;20197;-77
2022/07/28 04:51:31;;;;;;;3.33;1.85;;;17.60;98.30;;;;;;5081612;28;20212;-76
2022/07/28 04:53:59;;;;;;;3.72;1.75;;;17.80;98.20;;;;;;5081475;28;20200;-77
2022/07/28 04:56:26;;;;;;;4.30;1.95;;;17.80;98.10;;;;;;5083043;28;20706;-76
2022/07/28 04:58:54;;;;;;;3.70;2.40;;;17.80;98.10;;;;;;5081183;28;20200;-78
2022/07/28 05:01:22;;;;;;;3.15;2.38;;;17.70;97.70;;;;;;5080267;28;20217;-78
2022/07/28 05:03:50;;;;;;;3.65;2.30;;;17.20;99.10;;;;;;5084438;28;20670;-78
2022/07/28 05:06:18;;;;;;;3.92;2.50;;;16.90;99.90;;;;;;5084903;28;20200;-78
2022/07/28 05:08:46;;;;;;;3.67;2.70;;;16.80;99.90;;;;;;5084175;28;20201;-77
2022/07/28 05:11:13;;;;;;;4.00;2.22;;;16.60;99.90;;;;;;5081816;28;20217;-78
2022/07/28 05:13:41;;;;;;;4.38;2.53;;;16.40;99.90;;;;;;5070863;28;20205;-78
2022/07/28 05:16:09;;;;;;;4.00;2.75;;;16.30;99.90;;;;;;5081933;28;20198;-78
2022/07/28 05:18:36;;;;;;;3.10;2.20;;;16.20;99.90;;;;;;5087152;28;20205;-78
2022/07/28 05:21:04;;;;;;;2.60;2.05;;;16.30;99.90;;;;;;5086875;28;20232;-78
2022/07/28 05:23:32;;;;;;;4.50;2.67;;;16.40;99.90;;;;;;5079058;28;20212;-80
2022/07/28 05:26:00;;;;;;;3.85;1.90;;;16.20;99.90;;;;;;5081239;28;20205;-78
2022/07/28 05:28:28;;;;;;;3.60;2.35;;;16.10;99.90;;;;;;5083046;28;20561;-77
2022/07/28 05:30:55;;;;;;;3.35;2.10;;;16.10;99.90;;;;;;5080403;28;20223;-78
2022/07/28 05:33:22;;;;;;;4.28;2.20;;;16.40;99.90;;;;;;5102762;28;20205;-78
2022/07/28 05:35:53;;;;;;;3.05;2.13;;;16.30;99.90;;;;;;5089876;28;20205;-78
2022/07/28 05:38:20;;;;;;;4.95;2.35;;;16.30;99.90;;;;;;5078692;28;20206;-78
2022/07/28 05:40:49;;;;;;;4.35;2.30;;;16.40;99.90;;;;;;5084537;28;20242;-78
2022/07/28 05:43:17;;;;;;;3.63;2.40;;;16.60;99.90;;;;;;5088340;28;20209;-78
2022/07/28 05:45:45;;;;;;;4.03;2.30;;;16.60;99.90;;;;;;5085692;28;20215;-78
2022/07/28 05:48:12;;;;;;;5.00;2.15;;;16.50;99.90;;;;;;5087796;28;20674;-78
2022/07/28 05:50:40;;;;;;;6.57;2.65;;;16.70;99.90;;;;;;5084030;28;20240;-77
2022/07/28 05:53:07;;;;;;;5.53;2.92;;;16.50;99.90;;;;;;5086694;28;20200;-81
2022/07/28 05:55:35;;;;;;;7.45;2.75;;;16.30;99.90;;;;;;5087247;28;20201;-77
2022/07/28 05:58:04;;;;;;;4.10;2.55;;;16.20;99.90;;;;;;5088677;28;20209;-77
2022/07/28 06:00:32;;;;;;;4.60;2.58;;;16.20;99.90;;;;;;5081366;28;20231;-78
2022/07/28 06:03:00;;;;;;;4.88;2.38;;;16.20;99.90;;;;;;5082601;28;20216;-78
2022/07/28 06:05:30;;;;;;;5.60;2.50;;;16.30;99.90;;;;;;5090757;28;20212;-77
2022/07/28 06:07:58;;;;;;;4.72;3.17;;;16.50;99.90;;;;;;5086635;28;20204;-77
2022/07/28 06:10:57;;;;;;;3.85;2.22;;;16.50;99.90;;;;;;5082683;28;20232;-79
2022/07/28 06:13:17;;;;;;;4.75;2.47;;;16.60;99.90;;;;;;5072525;28;20205;-79
2022/07/28 06:15:46;;;;;;;4.95;2.58;;;16.70;99.90;;;;;;5087314;28;20224;-80
2022/07/28 06:18:14;;;;;;;6.10;2.72;;;16.70;99.90;;;;;;5092768;28;20216;-77
2022/07/28 06:20:42;;;;;;;6.32;2.60;;;16.80;99.90;;;;;;5091923;28;20559;-77
2022/07/28 06:23:10;;;;;;;3.78;2.30;;;16.80;99.90;;;;;;5090608;28;20204;-77
2022/07/28 06:25:37;;;;;;;3.65;2.50;;;16.90;99.90;;;;;;5091786;28;20204;-78
2022/07/28 06:28:05;;;;;;;7.88;3.00;;;16.90;99.90;;;;;;5092657;28;20590;-79
2022/07/28 06:30:34;;;;;;;6.88;3.08;;;17.10;99.90;;;;;;5092921;28;20243;-80
2022/07/28 06:33:04;;;;;;;4.63;2.58;;;17.00;99.90;;;;;;5084364;28;20204;-77
2022/07/28 06:35:32;;;;;;;5.25;2.40;;;17.20;99.90;;;;;;5089129;28;20204;-78
2022/07/28 06:38:00;;;;;;;6.00;3.17;;;17.50;99.90;;;;;;5089274;28;20577;-77
2022/07/28 06:40:28;;;;;;;5.22;2.20;;;17.20;99.90;;;;;;5083580;28;20221;-78
2022/07/28 06:42:55;;;;;;;5.43;2.17;;;17.20;99.90;;;;;;5090272;28;20205;-77
2022/07/28 06:45:23;;;;;;;5.07;2.15;;;17.20;99.90;;;;;;5091466;28;20212;-78
2022/07/28 06:47:52;;;;;;;5.07;2.30;;;17.20;99.90;;;;;;5091100;28;20185;-77
2022/07/28 06:50:20;;;;;;;5.45;2.05;;;17.30;99.90;;;;;;5092783;28;20224;-77
2022/07/28 06:52:48;;;;;;;3.83;2.53;;;17.10;99.90;;;;;;5092878;28;20555;-77
2022/07/28 06:55:16;;;;;;;3.85;2.00;;;17.20;99.90;;;;;;5092413;28;20197;-84
2022/07/28 06:57:43;;;;;;;7.10;2.85;;;17.30;99.90;;;;;;5087575;28;20217;-77
2022/07/28 07:00:13;;;;;;;5.13;2.03;;;17.40;99.90;;;;;;5084706;28;20216;-78
2022/07/28 07:02:52;;;;;;;5.93;2.25;;;17.30;99.90;;;;;;5084373;28;20587;-77
2022/07/28 07:05:20;;;;;;;5.25;1.70;;;17.20;99.90;;;;;;5092466;28;20195;-77
2022/07/28 07:07:47;;;;;;;4.55;1.65;;;17.20;99.90;;;;;;5089088;28;20204;-78
2022/07/28 07:10:14;;;;;;;4.70;2.05;;;17.50;99.90;;;;;;5090766;28;20701;-78
2022/07/28 07:12:42;;;;;;;7.63;2.13;;;17.50;99.90;;;;;;5080731;28;20690;-80
2022/07/28 07:15:11;;;;;;;3.80;1.50;;;17.60;99.90;;;;;;5089859;28;20201;-77
2022/07/28 07:17:38;;;;;;;6.13;2.00;;;17.60;99.40;;;;;;5086684;28;20216;-80
2022/07/28 07:20:09;;;;;;;4.78;2.00;;;17.50;99.20;;;;;;5087250;28;20222;-78
2022/07/28 07:22:42;;;;;;;4.30;1.52;;;17.70;99.10;;;;;;5083187;28;20663;-79
2022/07/28 07:25:10;;;;;;;2.92;1.30;;;17.80;98.90;;;;;;5086718;28;20562;-79
2022/07/28 07:27:38;;;;;;;7.38;2.05;;;17.80;99.20;;;;;;5084351;28;20197;-78
2022/07/28 07:30:07;;;;;;;3.58;1.67;;;17.70;99.20;;;;;;5072612;28;20228;-77
2022/07/28 07:32:34;;;;;;;3.40;2.03;;;17.90;98.80;;;;;;5071795;28;20216;-77
2022/07/28 07:35:02;;;;;;;4.32;2.00;;;17.80;98.70;;;;;;5074504;28;20648;-78
2022/07/28 07:37:32;;;;;;;6.47;1.77;;;17.80;98.50;;;;;;5082627;28;20205;-77
2022/07/28 07:40:00;;;;;;;5.07;1.67;;;17.70;98.80;;;;;;5086731;28;20229;-78
2022/07/28 07:42:27;;;;;;;4.93;1.67;;;17.80;99.10;;;;;;5106372;28;20197;-78
2022/07/28 07:44:55;;;;;;;3.67;1.70;;;17.90;98.60;;;;;;5091812;28;20193;-79
2022/07/28 07:47:23;;;;;;;3.28;1.60;;;17.80;98.80;;;;;;5093405;28;20200;-77
2022/07/28 07:49:50;;;;;;;4.30;1.50;;;18.10;98.70;;;;;;5082541;28;20232;-77
2022/07/28 07:52:18;;;;;;;5.97;1.58;;;18.30;98.40;;;;;;5089652;28;20201;-77
2022/07/28 07:54:46;;;;;;;2.78;1.70;;;18.20;97.60;;;;;;5087083;28;20201;-80
2022/07/28 07:57:14;;;;;;;2.65;1.48;;;18.10;97.90;;;;;;5088387;28;20201;-77
2022/07/28 07:59:41;;;;;;;4.15;1.42;;;18.30;97.60;;;;;;5088488;28;20232;-79
2022/07/28 08:02:10;;;;;;;2.78;1.50;;;18.30;97.50;;;;;;5089859;28;20205;-78
2022/07/28 08:04:37;;;;;;;3.72;1.30;;;18.30;97.60;;;;;;5088079;28;20203;-79
2022/07/28 08:07:05;;;;;;;3.83;1.58;;;18.30;97.20;;;;;;5084981;28;20555;-77
2022/07/28 08:09:33;;;;;;;4.55;1.58;;;18.30;97.10;;;;;;5085415;28;20204;-79
2022/07/28 08:12:02;;;;;;;5.85;1.67;;;18.40;97.00;;;;;;5084979;28;20197;-80
2022/07/28 08:14:29;;;;;;;4.00;1.70;;;18.60;96.70;;;;;;5085038;28;20578;-76
2022/07/28 08:16:58;;;;;;;4.72;1.73;;;18.80;97.10;;;;;;5082432;28;20205;-76
2022/07/28 08:19:26;;;;;;;6.88;1.63;;;18.70;96.70;;;;;;5099285;28;20605;-76
2022/07/28 08:21:54;;;;;;;4.30;1.70;;;18.70;96.30;;;;;;5087632;28;20553;-76
2022/07/28 08:24:21;;;;;;;4.40;1.40;;;18.80;96.90;;;;;;5076330;28;20224;-76
2022/07/28 08:26:50;;;;;;;2.75;1.80;;;19.10;96.20;;;;;;5080834;28;20212;-77
2022/07/28 08:29:19;;;;;;;3.97;1.48;;;18.90;95.60;;;;;;5087773;28;20192;-76
2022/07/28 08:31:46;;;;;;;4.88;2.20;;;18.80;96.30;;;;;;5078872;28;20198;-77
2022/07/28 08:34:14;;;;;;;5.53;1.75;;;19.20;95.90;;;;;;5082860;28;20212;-77
2022/07/28 08:36:41;;;;;;;4.63;1.60;;;19.20;95.60;;;;;;5077571;28;20202;-77
2022/07/28 08:39:08;;;;;;;3.72;1.80;;;19.10;96.00;;;;;;5081205;28;20213;-77
2022/07/28 08:41:46;;;;;;;6.57;1.67;;;19.50;95.30;;;;;;5078601;28;20240;-77
2022/07/28 08:44:15;;;;;;;2.40;1.40;;;19.40;94.60;;;;;;5082076;28;20209;-77
2022/07/28 08:46:48;;;;;;;4.25;1.75;;;19.50;94.40;;;;;;5083378;28;20643;-77
2022/07/28 08:49:16;;;;;;;3.75;1.42;;;19.60;94.20;;;;;;5074386;28;20189;-77
2022/07/28 08:51:47;;;;;;;4.60;1.75;;;19.80;94.00;;;;;;5079517;28;20200;-75
2022/07/28 08:54:20;;;;;;;5.20;1.67;;;19.90;93.60;;;;;;5085642;28;20193;-75
2022/07/28 08:56:48;;;;;;;4.13;1.20;;;20.00;93.20;;;;;;5086284;28;20211;-75
2022/07/28 08:59:15;;;;;;;3.28;1.60;;;19.70;93.40;;;;;;5077110;28;20660;-76
2022/07/28 09:01:45;;;;;;;6.10;1.48;;;19.80;93.40;;;;;;5078108;28;20201;-75
2022/07/28 09:04:12;;;;;;;4.18;1.90;;;19.70;93.50;;;;;;5081476;28;20764;-75
2022/07/28 09:06:41;;;;;;;3.35;1.67;;;20.00;93.20;;;;;;5083222;28;20204;-75
2022/07/28 09:09:09;;;;;;;4.53;1.90;;;19.90;92.80;;;;;;5081654;28;20523;-75
2022/07/28 09:11:37;;;;;;;2.35;1.38;;;19.90;93.20;;;;;;5078118;28;20220;-76
2022/07/28 09:14:05;;;;;;;3.80;1.85;;;19.80;93.30;;;;;;5083811;28;20677;-76
2022/07/28 09:16:33;;;;;;;2.75;1.67;;;20.10;93.00;;;;;;5082614;28;20196;-75
2022/07/28 09:19:02;;;;;;;2.83;1.40;;;20.10;92.30;;;;;;5082532;28;20215;-75
2022/07/28 09:21:30;;;;;;;3.28;1.52;;;20.10;92.90;;;;;;5084551;28;20217;-75
2022/07/28 09:23:59;;;;;;;5.38;1.73;;;19.90;92.70;;;;;;5082156;28;20213;-75
2022/07/28 09:26:26;;;;;;;8.07;1.92;;;20.20;92.30;;;;;;5095151;28;20679;-75
2022/07/28 09:28:57;;;;;;;2.92;1.67;;;20.10;92.40;;;;;;5083538;28;20193;-75
2022/07/28 09:31:26;;;;;;;2.67;1.33;;;20.20;92.20;;;;;;5084477;28;20217;-75
2022/07/28 09:33:57;;;;;;;2.83;1.25;;;20.10;92.10;;;;;;5084840;28;20197;-76
2022/07/28 09:36:26;;;;;;;2.33;1.40;;;20.10;92.20;;;;;;5081361;28;20194;-76
2022/07/28 09:38:55;;;;;;;2.58;1.60;;;20.20;91.70;;;;;;5102166;28;20228;-76
2022/07/28 09:41:23;;;;;;;6.43;1.75;;;20.10;92.20;;;;;;5084381;28;20225;-76
2022/07/28 09:43:52;;;;;;;5.35;1.80;;;20.30;91.90;;;;;;5087358;28;20685;-76
2022/07/28 09:46:21;;;;;;;2.80;1.48;;;20.40;91.80;;;;;;5084063;28;20193;-76
2022/07/28 09:48:54;;;;;;;2.83;1.63;;;20.40;91.30;;;;;;5086309;28;20561;-77
2022/07/28 09:51:24;;;;;;;3.00;1.50;;;20.60;91.60;;;;;;5085595;28;20224;-78
2022/07/28 09:53:54;;;;;;;4.75;1.45;;;20.50;90.50;;;;;;5084159;28;20204;-79
2022/07/28 09:56:24;;;;;;;3.05;1.52;;;20.40;90.60;;;;;;5085132;28;20223;-78
2022/07/28 09:58:58;;;;;;;2.63;1.33;;;20.60;90.70;;;;;;5083401;28;20220;-78
2022/07/28 10:01:26;;;;;;;3.55;1.40;;;20.70;90.90;;;;;;5086904;28;20227;-78
2022/07/28 10:03:56;;;;;;;2.80;1.45;;;20.70;89.90;;;;;;5086534;28;20201;-78
2022/07/28 10:06:29;;;;;;;3.60;1.10;;;20.70;89.20;;;;;;5086468;28;20208;-78
2022/07/28 10:08:59;;;;;;;4.22;1.33;;;20.90;90.00;;;;;;5086955;28;20200;-78
2022/07/28 10:11:29;;;;;;;3.53;1.30;;;20.90;88.70;;;;;;5088227;28;20229;-77
2022/07/28 10:14:02;;;;;;;2.25;1.27;;;20.80;88.10;;;;;;5088280;28;20201;-78
2022/07/28 10:16:32;;;;;;;2.45;1.08;;;20.80;87.70;;;;;;5087107;28;20653;-80
2022/07/28 10:19:02;;;;;;;2.72;1.30;;;20.90;88.10;;;;;;5087070;28;20646;-78
2022/07/28 10:21:31;;;;;;;2.50;1.35;;;21.00;88.00;;;;;;5089342;28;20581;-80
2022/07/28 10:24:06;;;;;;;3.63;1.80;;;21.20;87.60;;;;;;5085038;28;20193;-78
2022/07/28 10:26:38;;;;;;;4.72;1.45;;;21.10;86.90;;;;;;5094624;28;20211;-80
2022/07/28 10:29:07;;;;;;;4.47;1.77;;;21.30;86.70;;;;;;5088836;28;20189;-79
2022/07/28 10:31:41;;;;;;;2.88;1.80;;;21.30;85.40;;;;;;5088660;28;20221;-78
2022/07/28 10:34:14;;;;;;;2.25;1.17;;;21.40;83.30;;;;;;5086996;28;20201;-78
2022/07/28 10:36:44;;;;;;;2.40;1.20;;;21.50;84.10;;;;;;5086697;28;20595;-78
2022/07/28 10:39:18;;;;;;;2.63;1.15;;;21.50;81.20;;;;;;5104515;28;20560;-78
2022/07/28 10:41:46;;;;;;;3.33;1.25;;;21.60;82.70;;;;;;5087250;28;20200;-78
2022/07/28 10:44:14;;;;;;;4.50;1.63;;;21.70;81.70;;;;;;5088840;28;20216;-79
2022/07/28 10:46:43;;;;;;;2.92;1.13;;;21.90;79.60;;;;;;5098156;28;20209;-78
2022/07/28 10:49:12;;;;;;;1.88;1.00;;;21.80;81.40;;;;;;5087997;28;20197;-78
2022/07/28 10:51:42;;;;;;;1.75;1.23;;;21.70;82.10;;;;;;5088675;28;20239;-78
2022/07/28 10:54:18;;;;;;;3.42;1.38;;;21.90;81.40;;;;;;5082459;28;20193;-78
2022/07/28 10:56:49;;;;;;;3.22;1.55;;;22.00;78.90;;;;;;5086828;28;20658;-79
2022/07/28 10:59:45;;;;;;;2.08;1.02;;;22.20;79.00;;;;;;5085465;28;20201;-78
2022/07/28 11:02:44;;;;;;;3.60;1.20;;;22.40;77.80;;;;;;5086015;28;20201;-79
2022/07/28 11:05:27;;;;;;;2.20;1.10;;;22.30;77.90;;;;;;5085044;28;20193;-79
2022/07/28 11:07:55;;;;;;;4.72;1.20;;;22.50;78.90;;;;;;5092853;28;20197;-79
2022/07/28 11:10:24;;;;;;;3.83;1.20;;;22.60;77.70;;;;;;5088815;28;20224;-79
2022/07/28 11:13:00;;;;;;;3.88;1.42;;;22.50;75.10;;;;;;5088422;28;20561;-77
2022/07/28 11:15:31;;;;;;;3.05;1.10;;;22.70;75.00;;;;;;5084658;28;20212;-78
2022/07/28 11:18:04;;;;;;;3.85;1.52;;;22.80;72.80;;;;;;5091161;28;20211;-78
2022/07/28 11:21:08;;;;;;;2.88;1.13;;;22.80;72.20;;;;;;5090681;28;20578;-79
2022/07/28 11:23:40;;;;;;;3.53;1.23;;;22.80;72.50;;;;;;5080814;28;20197;-78
2022/07/28 11:26:38;;;;;;;4.18;1.30;;;23.00;71.90;;;;;;5090423;28;20193;-79
2022/07/28 11:29:21;;;;;;;2.30;1.50;;;23.20;71.30;;;;;;5094138;28;20194;-79
2022/07/28 11:31:59;;;;;;;3.47;1.25;;;23.30;69.70;;;;;;5081315;28;20208;-79
2022/07/28 11:34:27;;;;;;;2.33;1.13;;;23.20;71.10;;;;;;5082200;28;20200;-78
2022/07/28 11:37:04;;;;;;;2.97;1.63;;;23.30;71.00;;;;;;5077327;28;20769;-78
2022/07/28 11:39:32;;;;;;;2.22;1.25;;;23.30;71.40;;;;;;5085979;28;20205;-78
2022/07/28 11:42:25;;;;;;;2.53;1.45;;;23.20;69.30;;;;;;5099310;28;20208;-78
2022/07/28 11:44:53;;;;;;;3.50;1.48;;;23.60;68.00;;;;;;5082175;28;20197;-79
2022/07/28 11:47:23;;;;;;;3.05;1.52;;;23.80;67.60;;;;;;5081870;28;20200;-78
2022/07/28 11:50:12;;;;;;;3.30;1.38;;;23.60;67.10;;;;;;5078786;28;20244;-78
2022/07/28 11:52:51;;;;;;;2.95;1.27;;;23.70;67.30;;;;;;5076816;28;20201;-78
2022/07/28 11:55:19;;;;;;;3.65;1.48;;;23.90;65.60;;;;;;5078452;28;20201;-78
2022/07/28 11:57:48;;;;;;;3.85;1.40;;;24.10;65.30;;;;;;5084112;28;21647;-78
2022/07/28 12:00:21;;;;;;;2.58;0.93;;;24.20;62.60;;;;;;5080938;28;20218;-78
2022/07/28 12:02:49;;;;;;;2.75;1.20;;;24.10;65.10;;;;;;5087628;28;20651;-78
2022/07/28 12:05:17;;;;;;;2.97;1.15;;;23.90;65.30;;;;;;5080837;28;20209;-79
2022/07/28 12:07:47;;;;;;;2.75;1.15;;;24.20;65.70;;;;;;5082306;28;20650;-78
2022/07/28 12:10:33;;;;;;;2.25;1.13;;;24.40;64.60;;;;;;5089112;28;20221;-78
2022/07/28 12:13:04;;;;;;;4.82;1.35;;;24.50;62.40;;;;;;5090536;28;20204;-78
2022/07/28 12:15:33;;;;;;;2.13;1.23;;;24.50;61.90;;;;;;5089755;28;20196;-78
2022/07/28 12:18:01;;;;;;;2.72;1.45;;;24.60;61.20;;;;;;5082268;28;20236;-78
2022/07/28 12:20:31;;;;;;;3.25;1.40;;;24.50;60.90;;;;;;5079278;28;20586;-79
2022/07/28 12:23:01;;;;;;;2.92;1.20;;;24.80;61.60;;;;;;5099753;28;20197;-79
2022/07/28 12:25:29;;;;;;;5.38;1.60;;;24.60;60.50;;;;;;5079495;28;20208;-79
2022/07/28 12:27:57;;;;;;;2.08;1.10;;;24.90;60.80;;;;;;5087107;28;20196;-79
2022/07/28 12:30:28;;;;;;;1.67;1.00;;;24.90;60.90;;;;;;5080547;28;20275;-79
2022/07/28 12:32:56;;;;;;;3.58;1.60;;;24.60;62.20;;;;;;5092471;28;20197;-79
2022/07/28 12:35:25;;;;;;;2.75;1.20;;;24.90;61.60;;;;;;5080090;28;20201;-79
2022/07/28 12:37:52;;;;;;;2.00;1.23;;;24.90;60.50;;;;;;5086490;28;20197;-79
2022/07/28 12:40:21;;;;;;;1.60;1.20;;;25.30;60.90;;;;;;5084482;28;20233;-79
2022/07/28 12:42:55;;;;;;;2.45;1.35;;;25.00;59.70;;;;;;5086049;28;20212;-79
2022/07/28 12:45:22;;;;;;;2.90;1.38;;;24.80;61.00;;;;;;5080605;28;20201;-79
2022/07/28 12:48:06;;;;;;;3.25;1.33;;;24.90;61.00;;;;;;5083300;28;20193;-79
2022/07/28 12:50:38;;;;;;;2.17;1.10;;;25.10;60.50;;;;;;5083223;28;20217;-79
2022/07/28 12:53:07;;;;;;;2.60;1.20;;;25.10;58.70;;;;;;5076635;28;20283;-80
2022/07/28 12:55:42;;;;;;;2.88;1.23;;;24.90;60.20;;;;;;5082235;28;20206;-78
2022/07/28 12:58:22;;;;;;;3.33;1.20;;;24.90;60.70;;;;;;5075765;28;20203;-78
2022/07/28 13:00:50;;;;;;;5.70;1.70;;;24.50;60.60;;;;;;5074043;28;20209;-78
2022/07/28 13:03:24;;;;;;;3.00;1.33;;;24.50;61.30;;;;;;5083834;28;20197;-78
2022/07/28 13:06:02;;;;;;;3.90;1.23;;;24.50;61.40;;;;;;5080676;28;20193;-79